createdAt,value
2017-09-13T00:00:12.425Z,986.14
2017-09-13T00:01:13.322Z,986.17
2017-09-13T00:02:11.809Z,986.09
2017-09-13T00:03:11.811Z,986.14
2017-09-13T00:04:11.819Z,986.18
2017-09-13T00:05:11.806Z,986.14
2017-09-13T00:06:11.859Z,986.16
2017-09-13T00:07:11.811Z,986.04
2017-09-13T00:08:12.779Z,986.10
2017-09-13T00:09:13.087Z,986.07
2017-09-13T00:10:13.012Z,986.09
2017-09-13T00:11:13.052Z,986.14
2017-09-13T00:12:13.083Z,986.10
2017-09-13T00:13:13.116Z,986.12
2017-09-13T00:14:12.498Z,986.11
2017-09-13T00:15:12.457Z,986.17
2017-09-13T00:16:12.498Z,986.19
2017-09-13T00:17:12.481Z,986.15
2017-09-13T00:18:11.857Z,986.18
2017-09-13T00:19:12.577Z,986.10
2017-09-13T00:20:11.919Z,986.16
2017-09-13T00:21:11.852Z,986.13
2017-09-13T00:22:11.908Z,986.13
2017-09-13T00:23:11.866Z,986.12
2017-09-13T00:24:11.957Z,986.09
2017-09-13T00:25:12.050Z,986.08
2017-09-13T00:26:11.900Z,986.07
2017-09-13T00:27:13.095Z,986.07
2017-09-13T00:28:12.519Z,986.08
2017-09-13T00:29:13.103Z,986.17
2017-09-13T00:30:12.408Z,986.07
2017-09-13T00:31:12.590Z,986.09
2017-09-13T00:32:12.500Z,986.13
2017-09-13T00:33:12.508Z,986.14
2017-09-13T00:34:12.530Z,986.05
2017-09-13T00:35:11.883Z,986.18
2017-09-13T00:36:11.914Z,986.15
2017-09-13T00:37:11.936Z,986.11
2017-09-13T00:38:11.955Z,986.11
2017-09-13T00:39:11.895Z,986.05
2017-09-13T00:40:12.004Z,986.03
2017-09-13T00:41:11.933Z,985.98
2017-09-13T00:42:11.941Z,985.91
2017-09-13T00:43:13.181Z,985.86
2017-09-13T00:44:13.204Z,985.84
2017-09-13T00:45:13.196Z,985.81
2017-09-13T00:46:13.192Z,985.86
2017-09-13T00:47:13.207Z,985.80
2017-09-13T00:48:12.606Z,985.80
2017-09-13T00:49:12.614Z,985.91
2017-09-13T00:50:12.628Z,985.88
2017-09-13T00:51:12.621Z,985.90
2017-09-13T00:52:12.620Z,985.91
2017-09-13T00:53:11.998Z,985.84
2017-09-13T00:54:11.985Z,985.94
2017-09-13T00:55:11.986Z,985.94
2017-09-13T00:56:11.945Z,985.91
2017-09-13T00:57:11.983Z,985.98
2017-09-13T00:58:12.001Z,985.92
2017-09-13T00:59:12.076Z,985.87
2017-09-13T01:02:34.904Z,985.80
2017-09-13T01:02:35.815Z,985.81
2017-09-13T01:02:37.022Z,985.77
2017-09-13T01:03:12.034Z,985.79
2017-09-13T01:05:58.126Z,985.82
2017-09-13T01:05:59.253Z,985.80
2017-09-13T01:11:19.138Z,985.80
2017-09-13T01:11:20.348Z,985.69
2017-09-13T01:11:21.257Z,985.78
2017-09-13T01:11:22.576Z,985.79
2017-09-13T01:11:23.695Z,985.83
2017-09-13T01:11:24.813Z,985.88
2017-09-13T01:15:10.737Z,985.92
2017-09-13T01:15:11.649Z,985.83
2017-09-13T01:15:12.975Z,985.90
2017-09-13T01:15:14.279Z,985.81
2017-09-13T01:17:54.795Z,985.85
2017-09-13T01:17:55.811Z,985.75
2017-09-13T01:20:34.905Z,985.81
2017-09-13T01:20:35.824Z,985.72
2017-09-13T01:20:37.044Z,985.80
2017-09-13T01:23:45.112Z,985.73
2017-09-13T01:23:46.331Z,985.77
2017-09-13T01:23:47.247Z,985.73
2017-09-13T01:26:34.125Z,985.73
2017-09-13T01:26:35.059Z,985.74
2017-09-13T01:26:36.182Z,985.82
2017-09-13T01:29:50.750Z,985.73
2017-09-13T01:29:51.875Z,985.68
2017-09-13T01:29:52.785Z,985.68
2017-09-13T01:32:34.650Z,985.64
2017-09-13T01:32:35.561Z,985.69
2017-09-13T01:32:36.682Z,985.65
2017-09-13T01:35:54.044Z,985.55
2017-09-13T01:35:55.160Z,985.59
2017-09-13T01:35:56.177Z,985.63
2017-09-13T01:38:34.027Z,985.60
2017-09-13T01:38:35.149Z,985.54
2017-09-13T01:38:36.267Z,985.49
2017-09-13T01:41:54.029Z,985.59
2017-09-13T01:41:55.049Z,985.55
2017-09-13T01:41:56.062Z,985.46
2017-09-13T01:45:10.684Z,985.56
2017-09-13T01:45:11.843Z,985.51
2017-09-13T01:45:12.963Z,985.49
2017-09-13T01:45:14.189Z,985.40
2017-09-13T01:47:54.705Z,985.54
2017-09-13T01:47:55.846Z,985.41
2017-09-13T01:50:34.084Z,985.44
2017-09-13T01:50:34.999Z,985.42
2017-09-13T01:50:36.124Z,985.43
2017-09-13T01:51:12.218Z,985.43
2017-09-13T01:53:44.081Z,985.42
2017-09-13T01:53:45.199Z,985.29
2017-09-13T01:57:05.270Z,985.18
2017-09-13T01:57:06.713Z,985.23
2017-09-13T01:57:08.646Z,985.15
2017-09-13T01:59:54.071Z,985.12
2017-09-13T01:59:55.193Z,985.07
2017-09-13T01:59:56.107Z,985.10
2017-09-13T02:00:12.179Z,985.01
2017-09-13T02:01:12.798Z,984.98
2017-09-13T02:02:13.512Z,984.93
2017-09-13T02:03:12.221Z,984.96
2017-09-13T02:04:12.249Z,984.85
2017-09-13T02:05:12.201Z,984.94
2017-09-13T02:06:12.238Z,984.88
2017-09-13T02:07:12.237Z,984.85
2017-09-13T02:08:13.464Z,984.89
2017-09-13T02:09:13.480Z,984.81
2017-09-13T02:10:13.492Z,984.80
2017-09-13T02:11:13.469Z,984.77
2017-09-13T02:12:13.560Z,984.67
2017-09-13T02:13:13.462Z,984.69
2017-09-13T02:14:12.720Z,984.64
2017-09-13T02:15:12.781Z,984.62
2017-09-13T02:16:12.815Z,984.66
2017-09-13T02:17:12.887Z,984.60
2017-09-13T02:18:12.922Z,984.56
2017-09-13T02:19:12.910Z,984.44
2017-09-13T02:20:12.928Z,984.39
2017-09-13T02:21:12.255Z,984.40
2017-09-13T02:22:12.320Z,984.34
2017-09-13T02:23:12.370Z,984.32
2017-09-13T02:24:12.268Z,984.27
2017-09-13T02:25:12.315Z,984.20
2017-09-13T02:26:12.280Z,984.19
2017-09-13T02:27:12.252Z,984.20
2017-09-13T02:28:13.536Z,984.25
2017-09-13T02:29:13.497Z,984.23
2017-09-13T02:30:13.526Z,984.30
2017-09-13T02:31:13.603Z,984.24
2017-09-13T02:32:13.525Z,984.27
2017-09-13T02:33:12.930Z,984.29
2017-09-13T02:34:12.932Z,984.33
2017-09-13T02:35:12.924Z,984.30
2017-09-13T02:36:12.960Z,984.23
2017-09-13T02:37:12.937Z,984.26
2017-09-13T02:38:12.318Z,984.26
2017-09-13T02:39:12.346Z,984.23
2017-09-13T02:40:12.362Z,984.31
2017-09-13T02:41:12.363Z,984.26
2017-09-13T02:42:12.378Z,984.26
2017-09-13T02:43:12.384Z,984.30
2017-09-13T02:44:12.392Z,984.31
2017-09-13T02:45:12.304Z,984.18
2017-09-13T02:46:13.633Z,984.31
2017-09-13T02:47:13.578Z,984.20
2017-09-13T02:48:13.561Z,984.23
2017-09-13T02:49:13.556Z,984.20
2017-09-13T02:50:12.948Z,984.19
2017-09-13T02:51:12.956Z,984.19
2017-09-13T02:52:12.967Z,984.06
2017-09-13T02:53:12.978Z,984.13
2017-09-13T02:54:13.004Z,984.03
2017-09-13T02:55:13.001Z,984.07
2017-09-13T02:56:12.341Z,984.00
2017-09-13T02:57:12.382Z,984.03
2017-09-13T02:58:12.421Z,984.08
2017-09-13T02:59:12.350Z,984.06
2017-09-13T03:00:12.472Z,984.07
2017-09-13T03:01:12.387Z,984.10
2017-09-13T03:02:12.420Z,983.95
2017-09-13T03:03:12.414Z,983.93
2017-09-13T03:04:14.227Z,983.90
2017-09-13T03:05:13.679Z,983.89
2017-09-13T03:06:13.637Z,983.89
2017-09-13T03:07:13.641Z,983.83
2017-09-13T03:08:13.743Z,983.75
2017-09-13T03:09:13.228Z,983.83
2017-09-13T03:10:13.038Z,983.77
2017-09-13T03:11:13.079Z,983.79
2017-09-13T03:12:13.186Z,983.82
2017-09-13T03:13:12.410Z,983.73
2017-09-13T03:14:12.419Z,983.70
2017-09-13T03:15:12.413Z,983.76
2017-09-13T03:16:12.478Z,983.70
2017-09-13T03:17:12.600Z,983.61
2017-09-13T03:18:12.496Z,983.64
2017-09-13T03:19:12.492Z,983.59
2017-09-13T03:20:12.449Z,983.59
2017-09-13T03:21:12.485Z,983.57
2017-09-13T03:22:13.711Z,983.61
2017-09-13T03:23:13.930Z,983.58
2017-09-13T03:24:13.748Z,983.53
2017-09-13T03:24:55.192Z,983.53
2017-09-13T03:26:58.763Z,983.49
2017-09-13T03:26:59.917Z,983.47
2017-09-13T03:27:12.475Z,983.47
2017-09-13T03:28:13.698Z,983.46
2017-09-13T03:29:13.111Z,983.40
2017-09-13T03:30:12.474Z,983.37
2017-09-13T03:31:12.532Z,983.37
2017-09-13T03:32:12.547Z,983.37
2017-09-13T03:33:14.215Z,983.32
2017-09-13T03:34:12.518Z,983.32
2017-09-13T03:35:12.516Z,983.33
2017-09-13T03:36:12.515Z,983.33
2017-09-13T03:37:12.515Z,983.31
2017-09-13T03:38:12.528Z,983.28
2017-09-13T03:39:13.723Z,983.28
2017-09-13T03:40:13.765Z,983.28
2017-09-13T03:41:13.821Z,983.29
2017-09-13T03:42:13.212Z,983.35
2017-09-13T03:43:13.780Z,983.34
2017-09-13T03:44:13.173Z,983.29
2017-09-13T03:45:13.225Z,983.26
2017-09-13T03:46:13.213Z,983.23
2017-09-13T03:47:13.208Z,983.15
2017-09-13T03:48:13.180Z,983.16
2017-09-13T03:49:12.564Z,983.18
2017-09-13T03:50:12.561Z,983.20
2017-09-13T03:51:12.633Z,983.23
2017-09-13T03:52:12.510Z,983.26
2017-09-13T03:53:12.599Z,983.13
2017-09-13T03:54:12.544Z,983.08
2017-09-13T03:55:12.651Z,983.22
2017-09-13T03:56:12.631Z,983.17
2017-09-13T03:57:13.806Z,983.14
2017-09-13T03:58:13.794Z,983.06
2017-09-13T03:59:13.788Z,982.98
2017-09-13T04:00:13.194Z,982.98
2017-09-13T04:01:13.183Z,982.85
2017-09-13T04:02:13.163Z,982.95
2017-09-13T04:03:13.247Z,982.86
2017-09-13T04:04:13.225Z,982.91
2017-09-13T04:05:13.227Z,982.86
2017-09-13T04:06:12.605Z,982.92
2017-09-13T04:07:12.590Z,982.77
2017-09-13T04:08:12.655Z,982.79
2017-09-13T04:09:12.662Z,982.77
2017-09-13T04:10:12.635Z,982.73
2017-09-13T04:11:12.659Z,982.66
2017-09-13T04:12:12.639Z,982.74
2017-09-13T04:13:12.603Z,982.61
2017-09-13T04:14:13.588Z,982.59
2017-09-13T04:15:13.881Z,982.60
2017-09-13T04:16:13.869Z,982.48
2017-09-13T04:17:13.860Z,982.50
2017-09-13T04:18:13.241Z,982.52
2017-09-13T04:19:13.244Z,982.56
2017-09-13T04:20:13.245Z,982.53
2017-09-13T04:21:13.333Z,982.54
2017-09-13T04:22:13.319Z,982.54
2017-09-13T04:23:13.314Z,982.52
2017-09-13T04:24:12.713Z,982.49
2017-09-13T04:25:12.697Z,982.46
2017-09-13T04:26:12.711Z,982.47
2017-09-13T04:27:12.708Z,982.48
2017-09-13T04:28:12.708Z,982.46
2017-09-13T04:29:12.690Z,982.30
2017-09-13T04:30:12.675Z,982.31
2017-09-13T04:31:13.976Z,982.20
2017-09-13T04:32:13.885Z,982.19
2017-09-13T04:33:13.966Z,982.10
2017-09-13T04:34:13.971Z,982.11
2017-09-13T04:35:13.343Z,981.91
2017-09-13T04:36:13.318Z,981.92
2017-09-13T04:37:13.288Z,981.90
2017-09-13T04:38:13.357Z,981.92
2017-09-13T04:39:13.342Z,981.93
2017-09-13T04:40:12.714Z,981.81
2017-09-13T04:41:12.754Z,981.81
2017-09-13T04:42:13.564Z,981.74
2017-09-13T04:43:12.788Z,981.72
2017-09-13T04:44:12.785Z,981.70
2017-09-13T04:45:12.846Z,981.74
2017-09-13T04:46:12.758Z,981.58
2017-09-13T04:47:12.755Z,981.65
2017-09-13T04:48:12.817Z,981.68
2017-09-13T04:49:12.806Z,981.66
2017-09-13T04:50:13.975Z,981.66
2017-09-13T04:51:13.978Z,981.61
2017-09-13T04:52:14.085Z,981.60
2017-09-13T04:53:13.406Z,981.62
2017-09-13T04:54:13.402Z,981.58
2017-09-13T04:55:13.419Z,981.45
2017-09-13T04:56:13.412Z,981.49
2017-09-13T04:57:13.413Z,981.37
2017-09-13T04:58:12.788Z,981.35
2017-09-13T04:59:13.486Z,981.36
2017-09-13T05:00:12.798Z,981.35
2017-09-13T05:01:12.811Z,981.32
2017-09-13T05:02:12.774Z,981.30
2017-09-13T05:03:12.799Z,981.27
2017-09-13T05:04:12.670Z,981.26
2017-09-13T05:05:12.779Z,981.29
2017-09-13T05:06:14.012Z,981.23
2017-09-13T05:07:14.084Z,981.23
2017-09-13T05:08:14.069Z,981.09
2017-09-13T05:09:13.576Z,981.13
2017-09-13T05:10:13.443Z,981.10
2017-09-13T05:11:13.399Z,981.11
2017-09-13T05:12:13.401Z,981.02
2017-09-13T05:13:13.509Z,981.01
2017-09-13T05:14:13.422Z,981.10
2017-09-13T05:15:12.817Z,981.15
2017-09-13T05:16:12.840Z,981.10
2017-09-13T05:17:12.863Z,981.03
2017-09-13T05:18:12.841Z,981.08
2017-09-13T05:19:12.954Z,981.11
2017-09-13T05:20:12.831Z,981.05
2017-09-13T05:21:12.822Z,981.07
2017-09-13T05:22:12.935Z,981.03
2017-09-13T05:23:12.908Z,981.04
2017-09-13T05:24:14.103Z,980.96
2017-09-13T05:25:14.098Z,980.95
2017-09-13T05:26:13.604Z,980.84
2017-09-13T05:27:13.598Z,980.83
2017-09-13T05:28:13.667Z,980.82
2017-09-13T05:29:13.487Z,980.81
2017-09-13T05:30:13.534Z,980.74
2017-09-13T05:31:13.531Z,980.75
2017-09-13T05:32:13.497Z,980.66
2017-09-13T05:33:13.501Z,980.59
2017-09-13T05:34:12.919Z,980.50
2017-09-13T05:35:12.939Z,980.43
2017-09-13T05:36:12.958Z,980.49
2017-09-13T05:37:12.969Z,980.53
2017-09-13T05:38:12.957Z,980.55
2017-09-13T05:39:12.961Z,980.45
2017-09-13T05:40:13.014Z,980.50
2017-09-13T05:41:12.942Z,980.46
2017-09-13T05:42:14.182Z,980.30
2017-09-13T05:43:14.194Z,980.24
2017-09-13T05:44:14.211Z,980.35
2017-09-13T05:45:14.205Z,980.30
2017-09-13T05:46:14.332Z,980.27
2017-09-13T05:47:13.555Z,980.18
2017-09-13T05:48:13.529Z,980.17
2017-09-13T05:49:13.638Z,980.20
2017-09-13T05:50:13.560Z,980.15
2017-09-13T05:51:13.587Z,980.19
2017-09-13T05:52:12.812Z,980.16
2017-09-13T05:53:12.949Z,980.13
2017-09-13T05:54:12.960Z,980.07
2017-09-13T05:55:13.037Z,980.01
2017-09-13T05:56:12.954Z,979.93
2017-09-13T05:57:12.988Z,979.92
2017-09-13T05:58:12.986Z,979.83
2017-09-13T05:59:13.040Z,979.71
2017-09-13T06:00:12.999Z,979.76
2017-09-13T06:01:14.314Z,979.70
2017-09-13T06:02:14.282Z,979.67
2017-09-13T06:03:14.212Z,979.75
2017-09-13T06:04:13.608Z,979.72
2017-09-13T06:05:13.655Z,979.57
2017-09-13T06:06:13.618Z,979.52
2017-09-13T06:07:13.710Z,979.53
2017-09-13T06:08:13.627Z,979.48
2017-09-13T06:09:13.650Z,979.60
2017-09-13T06:10:13.024Z,979.52
2017-09-13T06:11:13.037Z,979.61
2017-09-13T06:12:13.799Z,979.60
2017-09-13T06:13:12.996Z,979.64
2017-09-13T06:14:13.075Z,979.54
2017-09-13T06:15:12.996Z,979.64
2017-09-13T06:16:13.004Z,979.59
2017-09-13T06:17:13.893Z,979.52
2017-09-13T06:18:14.318Z,979.51
2017-09-13T06:19:13.614Z,979.42
2017-09-13T06:20:13.673Z,979.35
2017-09-13T06:21:14.396Z,979.30
2017-09-13T06:22:13.652Z,979.47
2017-09-13T06:23:13.705Z,979.41
2017-09-13T06:24:13.760Z,979.34
2017-09-13T07:20:52.261Z,978.51
2017-09-13T07:21:13.845Z,978.40
2017-09-13T07:22:14.466Z,978.42
2017-09-13T07:23:15.388Z,978.45
2017-09-13T07:24:14.830Z,978.31
2017-09-13T07:25:14.802Z,978.40
2017-09-13T07:26:14.820Z,978.35
2017-09-13T07:27:14.817Z,978.38
2017-09-13T07:28:14.824Z,978.38
2017-09-13T07:29:14.815Z,978.33
2017-09-13T07:30:14.823Z,978.21
2017-09-13T07:31:14.838Z,978.35
2017-09-13T07:32:14.672Z,978.33
2017-09-13T07:33:14.895Z,978.35
2017-09-13T07:34:13.840Z,978.39
2017-09-13T07:35:13.898Z,978.19
2017-09-13T07:36:13.848Z,978.20
2017-09-13T07:37:15.883Z,978.37
2017-09-13T07:38:14.872Z,978.33
2017-09-13T07:39:14.901Z,978.31
2017-09-13T07:40:14.812Z,978.47
2017-09-13T07:41:13.825Z,978.36
2017-09-13T07:42:13.836Z,978.38
2017-09-13T07:43:13.837Z,978.28
2017-09-13T07:44:13.823Z,978.55
2017-09-13T07:45:13.847Z,978.32
2017-09-13T07:46:14.116Z,978.40
2017-09-13T07:47:13.929Z,978.32
2017-09-13T07:48:13.913Z,978.43
2017-09-13T07:49:13.853Z,978.23
2017-09-13T07:50:13.951Z,978.31
2017-09-13T07:51:13.891Z,978.34
2017-09-13T07:52:13.912Z,978.20
2017-09-13T07:53:13.907Z,978.31
2017-09-13T07:54:13.901Z,978.40
2017-09-13T07:55:13.900Z,978.27
2017-09-13T07:56:15.963Z,978.30
2017-09-13T07:57:14.909Z,978.34
2017-09-13T07:58:14.915Z,978.38
2017-09-13T07:59:14.891Z,978.38
2017-09-13T08:00:14.949Z,978.27
2017-09-13T08:01:13.954Z,978.42
2017-09-13T08:02:13.942Z,978.33
2017-09-13T08:03:13.847Z,978.40
2017-09-13T08:04:13.902Z,978.38
2017-09-13T08:05:13.872Z,978.22
2017-09-13T08:06:13.949Z,978.19
2017-09-13T08:07:13.902Z,978.22
2017-09-13T08:08:13.964Z,978.26
2017-09-13T08:09:13.919Z,978.23
2017-09-13T08:10:13.905Z,978.34
2017-09-13T08:11:13.957Z,978.37
2017-09-13T08:12:13.913Z,978.32
2017-09-13T08:13:13.967Z,978.33
2017-09-13T08:14:13.936Z,978.34
2017-09-13T08:15:14.926Z,978.44
2017-09-13T08:16:16.034Z,978.30
2017-09-13T08:17:14.988Z,978.40
2017-09-13T08:18:14.967Z,978.22
2017-09-13T08:19:15.024Z,978.32
2017-09-13T08:20:13.918Z,978.49
2017-09-13T08:21:13.986Z,978.49
2017-09-13T08:22:14.003Z,978.43
2017-09-13T08:23:13.976Z,978.41
2017-09-13T08:24:14.139Z,978.50
2017-09-13T08:25:14.051Z,978.48
2017-09-13T08:26:14.020Z,978.46
2017-09-13T08:27:13.984Z,978.38
2017-09-13T08:28:13.974Z,978.57
2017-09-13T08:29:13.995Z,978.51
2017-09-13T08:30:14.016Z,978.47
2017-09-13T08:31:13.981Z,978.49
2017-09-13T08:32:14.070Z,978.58
2017-09-13T08:33:14.041Z,978.53
2017-09-13T08:34:16.070Z,978.32
2017-09-13T08:35:15.093Z,978.40
2017-09-13T08:36:15.072Z,978.38
2017-09-13T08:37:15.058Z,978.59
2017-09-13T08:38:14.020Z,978.47
2017-09-13T08:39:13.965Z,978.57
2017-09-13T08:40:14.012Z,978.45
2017-09-13T08:41:14.044Z,978.59
2017-09-13T08:42:14.068Z,978.44
2017-09-13T08:43:14.007Z,978.41
2017-09-13T08:44:13.995Z,978.29
2017-09-13T08:45:14.071Z,978.40
2017-09-13T08:46:14.067Z,978.13
2017-09-13T08:47:14.060Z,978.35
2017-09-13T08:48:14.047Z,978.35
2017-09-13T08:49:14.058Z,978.33
2017-09-13T08:50:14.083Z,978.22
2017-09-13T08:51:14.116Z,978.09
2017-09-13T08:52:14.024Z,978.12
2017-09-13T08:53:15.051Z,978.14
2017-09-13T08:54:15.133Z,978.07
2017-09-13T08:55:15.065Z,978.30
2017-09-13T08:56:15.139Z,978.03
2017-09-13T08:57:15.065Z,978.00
2017-09-13T08:58:15.099Z,978.08
2017-09-13T08:59:15.092Z,978.03
2017-09-13T09:00:15.072Z,977.97
2017-09-13T09:01:15.179Z,978.00
2017-09-13T09:02:15.077Z,978.21
2017-09-13T09:03:15.157Z,978.19
2017-09-13T09:04:15.176Z,978.09
2017-09-13T09:05:15.097Z,978.11
2017-09-13T09:06:14.937Z,978.07
2017-09-13T09:07:15.098Z,978.09
2017-09-13T09:08:15.098Z,978.10
2017-09-13T09:09:15.179Z,977.96
2017-09-13T09:10:15.129Z,978.09
2017-09-13T09:11:15.152Z,978.02
2017-09-13T09:12:15.160Z,977.93
2017-09-13T09:13:15.149Z,977.99
2017-09-13T09:14:14.125Z,977.78
2017-09-13T09:15:14.180Z,977.81
2017-09-13T09:16:14.139Z,977.73
2017-09-13T09:17:14.147Z,977.74
2017-09-13T09:18:14.145Z,977.68
2017-09-13T09:19:14.179Z,977.74
2017-09-13T09:20:14.156Z,977.78
2017-09-13T09:21:14.321Z,977.65
2017-09-13T09:22:14.205Z,977.46
2017-09-13T09:23:14.212Z,977.49
2017-09-13T09:24:14.157Z,977.53
2017-09-13T09:25:14.172Z,977.40
2017-09-13T09:26:14.175Z,977.50
2017-09-13T09:27:14.204Z,977.37
2017-09-13T09:28:14.225Z,977.41
2017-09-13T09:29:16.251Z,977.65
2017-09-13T09:30:15.214Z,977.54
2017-09-13T09:31:15.213Z,977.54
2017-09-13T09:32:14.154Z,977.80
2017-09-13T09:33:15.258Z,977.74
2017-09-13T09:34:14.192Z,977.81
2017-09-13T09:35:14.212Z,977.76
2017-09-13T09:36:14.197Z,977.80
2017-09-13T09:37:14.217Z,977.90
2017-09-13T09:38:14.249Z,977.84
2017-09-13T09:39:14.210Z,977.87
2017-09-13T09:40:14.218Z,977.99
2017-09-13T09:41:14.212Z,977.89
2017-09-13T09:42:14.201Z,977.89
2017-09-13T09:43:14.292Z,977.85
2017-09-13T09:44:14.283Z,977.83
2017-09-13T09:45:14.200Z,977.95
2017-09-13T09:46:15.203Z,977.89
2017-09-13T09:47:16.317Z,977.88
2017-09-13T09:48:15.291Z,977.83
2017-09-13T09:49:15.237Z,977.88
2017-09-13T09:50:35.284Z,977.91
2017-09-13T09:50:38.402Z,977.91
2017-09-13T09:51:15.216Z,977.88
2017-09-13T09:52:15.315Z,977.86
2017-09-13T09:53:15.325Z,977.77
2017-09-13T09:54:15.316Z,977.69
2017-09-13T09:55:15.369Z,977.78
2017-09-13T09:56:15.262Z,977.69
2017-09-13T09:57:15.282Z,977.79
2017-09-13T11:19:30.213Z,977.36
2017-09-13T11:20:14.241Z,977.26
2017-09-13T11:21:15.437Z,977.45
2017-09-13T11:22:15.333Z,977.26
2017-09-13T11:23:15.414Z,977.37
2017-09-13T11:24:14.692Z,977.29
2017-09-13T11:25:15.654Z,977.36
2017-09-13T11:26:14.742Z,977.34
2017-09-13T11:27:14.810Z,977.37
2017-09-13T11:28:14.187Z,977.36
2017-09-13T11:29:14.177Z,977.41
2017-09-13T11:30:14.203Z,977.41
2017-09-13T11:31:14.131Z,977.38
2017-09-13T11:32:14.127Z,977.25
2017-09-13T11:33:14.181Z,977.48
2017-09-13T11:34:14.158Z,977.35
2017-09-13T11:35:15.997Z,977.36
2017-09-13T11:36:14.150Z,977.44
2017-09-13T11:37:15.350Z,977.41
2017-09-13T11:38:15.060Z,977.36
2017-09-13T11:39:15.898Z,977.28
2017-09-13T11:40:15.213Z,977.33
2017-09-13T11:41:14.834Z,977.44
2017-09-13T11:42:14.905Z,977.34
2017-09-13T11:43:14.823Z,977.34
2017-09-13T11:44:14.228Z,977.31
2017-09-13T11:45:14.237Z,977.32
2017-09-13T11:46:15.242Z,977.29
2017-09-13T11:47:14.213Z,977.34
2017-09-13T11:48:14.195Z,977.27
2017-09-13T11:49:14.267Z,977.38
2017-09-13T11:50:14.190Z,977.26
2017-09-13T11:51:14.603Z,977.34
2017-09-13T11:52:14.407Z,977.21
2017-09-13T11:53:14.228Z,977.15
2017-09-13T11:54:15.442Z,977.22
2017-09-13T11:55:15.527Z,977.28
2017-09-13T11:56:15.180Z,977.16
2017-09-13T11:57:15.286Z,977.23
2017-09-13T11:58:15.773Z,977.05
2017-09-13T11:59:15.004Z,977.13
2017-09-13T12:00:15.790Z,977.08
2017-09-13T12:01:14.862Z,977.04
2017-09-13T12:02:15.317Z,977.16
2017-09-13T12:03:14.298Z,977.11
2017-09-13T12:04:15.136Z,977.19
2017-09-13T12:05:14.306Z,977.22
2017-09-13T12:06:14.421Z,977.13
2017-09-13T12:07:14.301Z,977.22
2017-09-13T12:08:14.290Z,977.18
2017-09-13T12:09:14.590Z,977.25
2017-09-13T12:10:14.299Z,977.28
2017-09-13T12:11:14.281Z,977.08
2017-09-13T12:12:14.298Z,977.15
2017-09-13T12:13:15.722Z,977.24
2017-09-13T12:14:15.608Z,977.21
2017-09-13T12:15:15.799Z,977.20
2017-09-13T12:16:15.557Z,977.13
2017-09-13T12:17:14.879Z,977.25
2017-09-13T12:18:15.168Z,977.21
2017-09-13T12:19:14.969Z,977.31
2017-09-13T12:20:15.869Z,977.28
2017-09-13T12:21:15.825Z,977.28
2017-09-13T12:22:14.984Z,977.27
2017-09-13T12:23:14.387Z,977.20
2017-09-13T12:24:14.268Z,977.31
2017-09-13T12:25:14.384Z,977.09
2017-09-13T12:26:14.459Z,977.24
2017-09-13T12:27:20.296Z,977.15
2017-09-13T12:28:14.861Z,977.17
2017-09-13T12:29:15.953Z,977.13
2017-09-13T12:30:16.130Z,977.17
2017-09-13T12:31:14.961Z,977.23
2017-09-13T12:32:15.843Z,977.24
2017-09-13T12:33:15.003Z,977.39
2017-09-13T12:34:14.356Z,977.42
2017-09-13T12:35:15.639Z,977.19
2017-09-13T12:36:15.304Z,977.26
2017-09-13T12:37:16.096Z,977.29
2017-09-13T12:38:14.351Z,977.30
2017-09-13T12:39:14.336Z,977.37
2017-09-13T12:40:14.634Z,977.27
2017-09-13T12:41:14.438Z,977.34
2017-09-13T12:42:14.714Z,977.37
2017-09-13T12:43:14.747Z,977.32
2017-09-13T12:44:14.391Z,977.30
2017-09-13T12:45:15.594Z,977.37
2017-09-13T12:46:15.290Z,977.35
2017-09-13T12:47:15.236Z,977.38
2017-09-13T12:48:15.984Z,977.39
2017-09-13T12:49:14.746Z,977.32
2017-09-13T12:50:15.046Z,976.97
2017-09-13T12:51:15.545Z,977.02
2017-09-13T12:52:17.268Z,977.12
2017-09-13T12:53:14.553Z,977.13
2017-09-13T12:54:15.029Z,977.00
2017-09-13T12:55:15.025Z,977.05
2017-09-13T12:56:15.091Z,977.02
2017-09-13T12:57:17.632Z,977.05
2017-09-13T12:58:14.769Z,977.08
2017-09-13T12:59:14.711Z,977.14
2017-09-13T13:00:14.946Z,977.17
2017-09-13T13:01:14.964Z,977.15
2017-09-13T13:02:14.719Z,977.13
2017-09-13T13:03:15.513Z,977.12
2017-09-13T13:04:15.632Z,977.21
2017-09-13T13:05:15.828Z,977.17
2017-09-13T13:06:15.493Z,977.15
2017-09-13T13:07:15.866Z,977.10
2017-09-13T13:08:15.507Z,977.19
2017-09-13T13:09:15.246Z,977.24
2017-09-13T13:10:15.271Z,977.12
2017-09-13T13:11:16.866Z,977.12
2017-09-13T13:12:14.565Z,977.20
2017-09-13T13:13:14.514Z,977.15
2017-09-13T13:14:15.734Z,977.10
2017-09-13T13:15:15.058Z,977.01
2017-09-13T13:16:15.207Z,977.15
2017-09-13T13:17:16.349Z,977.06
2017-09-13T13:18:15.925Z,977.00
2017-09-13T13:19:16.243Z,976.94
2017-09-13T13:20:14.486Z,976.94
2017-09-13T13:21:15.432Z,976.83
2017-09-13T13:22:16.066Z,976.84
2017-09-13T13:23:14.725Z,976.77
2017-09-13T13:24:14.685Z,976.70
2017-09-13T13:25:14.510Z,976.76
2017-09-13T13:26:15.643Z,976.78
2017-09-13T13:27:16.506Z,976.79
2017-09-13T13:28:16.359Z,976.81
2017-09-13T13:29:15.625Z,976.72
2017-09-13T13:30:16.775Z,976.64
2017-09-13T13:31:15.149Z,976.58
2017-09-13T13:32:15.394Z,976.71
2017-09-13T13:33:15.747Z,976.70
2017-09-13T13:34:15.746Z,976.72
2017-09-13T13:35:15.841Z,976.86
2017-09-13T13:36:15.888Z,976.84
2017-09-13T13:37:15.538Z,976.81
2017-09-13T13:38:15.411Z,976.79
2017-09-13T13:39:15.315Z,976.83
2017-09-13T13:40:15.958Z,976.87
2017-09-13T13:41:15.222Z,976.79
2017-09-13T13:42:15.254Z,976.87
2017-09-13T13:43:14.644Z,976.79
2017-09-13T13:44:16.129Z,976.78
2017-09-13T13:45:14.810Z,976.83
2017-09-13T13:46:15.328Z,976.98
2017-09-13T13:47:15.313Z,976.96
2017-09-13T13:48:15.617Z,977.01
2017-09-13T13:49:15.913Z,976.98
2017-09-13T13:50:15.840Z,977.05
2017-09-13T13:51:15.844Z,977.07
2017-09-13T13:52:15.817Z,977.09
2017-09-13T13:53:15.890Z,977.20
2017-09-13T13:54:15.802Z,977.20
2017-09-13T13:55:15.910Z,977.24
2017-09-13T13:56:15.782Z,977.27
2017-09-13T13:57:15.203Z,977.27
2017-09-13T13:58:15.324Z,977.30
2017-09-13T13:59:15.332Z,977.36
2017-09-13T14:00:15.304Z,977.39
2017-09-13T14:01:15.314Z,977.47
2017-09-13T14:02:14.682Z,977.40
2017-09-13T14:03:14.749Z,977.46
2017-09-13T14:04:14.721Z,977.50
2017-09-13T14:05:15.582Z,977.51
2017-09-13T14:06:14.760Z,977.41
2017-09-13T14:07:14.709Z,977.50
2017-09-13T14:08:14.912Z,977.57
2017-09-13T14:09:14.810Z,977.62
2017-09-13T14:10:14.821Z,977.65
2017-09-13T14:11:14.799Z,977.74
2017-09-13T14:12:16.158Z,977.61
2017-09-13T14:13:15.292Z,977.54
2017-09-13T14:14:15.390Z,977.37
2017-09-13T14:15:14.657Z,977.64
2017-09-13T14:16:15.619Z,977.61
2017-09-13T14:17:14.678Z,977.69
2017-09-13T14:18:14.667Z,977.54
2017-09-13T14:19:14.710Z,977.66
2017-09-13T14:20:14.608Z,977.65
2017-09-13T14:21:14.731Z,977.56
2017-09-13T14:22:14.726Z,977.87
2017-09-13T14:23:16.006Z,977.82
2017-09-13T14:24:16.454Z,977.70
2017-09-13T14:25:15.915Z,977.78
2017-09-13T14:26:15.449Z,977.67
2017-09-13T14:27:15.461Z,977.81
2017-09-13T14:28:15.354Z,977.63
2017-09-13T14:29:15.334Z,977.68
2017-09-13T14:30:15.321Z,977.74
2017-09-13T14:31:15.507Z,977.79
